createdAt,value
2022-11-28T00:02:09.554Z,2.20
2022-11-28T00:04:46.040Z,2.20
2022-11-28T00:07:22.139Z,2.20
2022-11-28T00:09:58.472Z,2.20
2022-11-28T00:12:34.910Z,2.20
2022-11-28T00:15:14.086Z,2.20
2022-11-28T00:17:50.106Z,2.20
2022-11-28T00:20:26.281Z,2.20
2022-11-28T00:23:02.342Z,2.20
2022-11-28T00:25:38.123Z,2.20
2022-11-28T00:28:14.137Z,2.20
2022-11-28T00:30:50.032Z,2.20
2022-11-28T00:33:26.075Z,2.20
2022-11-28T00:36:09.490Z,2.20
2022-11-28T00:38:45.788Z,2.20
2022-11-28T00:41:25.656Z,2.20
2022-11-28T00:44:02.235Z,2.14
2022-11-28T00:46:38.474Z,2.18
2022-11-28T00:49:14.618Z,2.10
2022-11-28T00:51:50.678Z,2.10
2022-11-28T00:54:26.783Z,2.10
2022-11-28T00:57:02.656Z,2.10
2022-11-28T00:59:39.017Z,2.10
2022-11-28T01:02:15.399Z,2.10
2022-11-28T01:04:51.339Z,2.10
2022-11-28T01:07:28.657Z,2.10
2022-11-28T01:10:04.810Z,2.10
2022-11-28T01:12:40.890Z,2.10
2022-11-28T01:15:18.539Z,2.10
2022-11-28T01:17:54.529Z,2.10
2022-11-28T01:20:30.442Z,2.10
2022-11-28T01:23:06.487Z,2.10
2022-11-28T01:25:42.582Z,2.10
2022-11-28T01:28:18.559Z,2.10
2022-11-28T01:30:54.779Z,2.10
2022-11-28T01:33:30.832Z,2.10
2022-11-28T01:36:08.443Z,2.10
2022-11-28T01:38:45.665Z,2.10
2022-11-28T01:41:25.743Z,2.10
2022-11-28T01:45:18.006Z,2.10
2022-11-28T01:47:58.855Z,2.10
2022-11-28T01:50:36.365Z,2.10
2022-11-28T01:53:15.500Z,2.10
2022-11-28T01:55:58.967Z,2.10
2022-11-28T01:58:36.232Z,2.10
2022-11-28T02:01:13.235Z,2.10
2022-11-28T02:03:51.702Z,2.10
2022-11-28T02:06:30.166Z,2.08
2022-11-28T02:09:07.506Z,2.02
2022-11-28T02:12:29.188Z,2.00
2022-11-28T02:15:37.685Z,2.00
2022-11-28T02:18:40.065Z,2.00
2022-11-28T02:21:52.551Z,2.00
2022-11-28T02:25:08.855Z,1.96
2022-11-28T02:28:51.981Z,1.96
2022-11-28T02:32:17.800Z,1.90
2022-11-28T02:35:06.934Z,1.90
2022-11-28T02:37:51.173Z,1.90
2022-11-28T02:40:37.693Z,1.90
2022-11-28T02:43:24.910Z,1.90
2022-11-28T02:46:08.985Z,1.90
2022-11-28T02:48:54.357Z,1.90
2022-11-28T02:51:39.925Z,1.90
2022-11-28T02:54:19.541Z,1.90
2022-11-28T02:56:57.596Z,1.90
2022-11-28T02:59:52.036Z,1.90
2022-11-28T03:02:33.317Z,1.90
2022-11-28T03:05:22.225Z,1.90
2022-11-28T03:08:24.206Z,1.90
2022-11-28T03:11:16.652Z,1.90
2022-11-28T03:14:03.866Z,1.90
2022-11-28T03:16:49.710Z,1.90
2022-11-28T03:19:33.251Z,1.90
2022-11-28T03:22:26.631Z,1.90
2022-11-28T03:25:13.432Z,1.90
2022-11-28T03:27:56.916Z,1.92
2022-11-28T03:30:44.650Z,2.00
2022-11-28T03:33:22.430Z,2.00
2022-11-28T03:36:07.776Z,1.90
2022-11-28T03:38:49.679Z,1.96
2022-11-28T03:41:34.493Z,2.00
2022-11-28T03:44:15.934Z,2.00
2022-11-28T03:46:56.833Z,2.00
2022-11-28T03:49:37.809Z,1.90
2022-11-28T03:52:24.363Z,1.90
2022-11-28T03:55:06.714Z,1.90
2022-11-28T03:57:52.510Z,1.90
2022-11-28T04:00:28.665Z,1.90
2022-11-28T04:03:17.991Z,1.90
2022-11-28T04:06:03.622Z,1.90
2022-11-28T04:08:50.004Z,1.90
2022-11-28T04:11:37.687Z,1.90
2022-11-28T04:14:24.648Z,1.90
2022-11-28T04:17:11.904Z,1.90
2022-11-28T04:19:57.415Z,1.90
2022-11-28T04:22:40.291Z,1.90
2022-11-28T04:25:23.364Z,1.90
2022-11-28T04:28:08.297Z,1.90
2022-11-28T04:30:49.094Z,1.90
2022-11-28T04:33:29.627Z,1.90
2022-11-28T04:36:09.537Z,1.90
2022-11-28T04:38:56.507Z,1.90
2022-11-28T04:41:40.639Z,1.90
2022-11-28T04:44:26.497Z,1.90
2022-11-28T04:47:03.726Z,1.90
2022-11-28T04:49:40.507Z,1.90
2022-11-28T04:52:25.932Z,1.90
2022-11-28T04:55:13.105Z,1.90
2022-11-28T04:57:57.289Z,1.90
2022-11-28T05:00:36.540Z,1.90
2022-11-28T05:03:14.326Z,1.90
2022-11-28T05:05:53.886Z,1.90
2022-11-28T05:08:29.999Z,1.90
2022-11-28T05:11:06.140Z,1.90
2022-11-28T05:13:41.935Z,1.90
2022-11-28T05:16:19.642Z,1.90
2022-11-28T05:18:55.887Z,1.90
2022-11-28T05:21:31.771Z,1.90
2022-11-28T05:24:09.005Z,1.90
2022-11-28T05:26:45.333Z,1.94
2022-11-28T05:29:21.870Z,1.92
2022-11-28T05:31:57.892Z,1.90
2022-11-28T05:34:33.972Z,1.98
2022-11-28T05:37:10.339Z,1.94
2022-11-28T05:39:46.443Z,1.92
2022-11-28T05:42:22.614Z,1.90
2022-11-28T05:44:58.520Z,1.90
2022-11-28T05:47:36.269Z,1.90
2022-11-28T05:50:14.484Z,1.90
2022-11-28T05:52:50.484Z,1.90
2022-11-28T05:55:26.690Z,1.90
2022-11-28T05:58:02.700Z,1.90
2022-11-28T06:00:39.115Z,1.90
2022-11-28T06:03:14.988Z,1.86
2022-11-28T06:05:51.014Z,1.80
2022-11-28T06:08:26.787Z,1.84
2022-11-28T06:11:03.757Z,1.82
2022-11-28T06:13:40.431Z,1.82
2022-11-28T06:16:19.887Z,1.84
2022-11-28T06:18:59.882Z,1.90
2022-11-28T06:21:36.619Z,1.90
2022-11-28T06:24:13.892Z,1.90
2022-11-28T06:26:49.692Z,1.90
2022-11-28T06:29:28.561Z,1.90
2022-11-28T06:32:04.919Z,1.90
2022-11-28T06:34:40.981Z,1.90
2022-11-28T06:37:17.293Z,1.90
2022-11-28T06:39:53.260Z,1.90
2022-11-28T06:42:29.159Z,1.90
2022-11-28T06:45:05.181Z,2.00
2022-11-28T06:47:40.929Z,2.00
2022-11-28T06:50:17.280Z,2.00
2022-11-28T06:52:53.091Z,2.00
2022-11-28T06:55:30.476Z,2.00
2022-11-28T06:58:06.581Z,2.04
2022-11-28T07:00:42.762Z,2.10
2022-11-28T07:03:18.649Z,2.10
2022-11-28T07:05:54.716Z,2.10
2022-11-28T07:08:31.754Z,2.10
2022-11-28T07:11:17.137Z,2.10
2022-11-28T07:13:54.400Z,2.10
2022-11-28T07:16:34.043Z,2.12
2022-11-28T07:19:12.204Z,2.20
2022-11-28T07:21:48.064Z,2.20
2022-11-28T07:24:24.589Z,2.20
2022-11-28T07:27:00.850Z,2.20
2022-11-28T07:29:37.110Z,2.20
2022-11-28T07:32:13.744Z,2.20
2022-11-28T07:34:50.456Z,2.20
2022-11-28T07:37:26.483Z,2.26
2022-11-28T07:40:02.514Z,2.30
2022-11-28T07:42:38.372Z,2.30
2022-11-28T07:45:15.848Z,2.30
2022-11-28T07:47:51.692Z,2.30
2022-11-28T07:50:27.570Z,2.40
2022-11-28T07:53:07.159Z,2.40
2022-11-28T07:55:43.395Z,2.50
2022-11-28T07:58:21.614Z,2.50
2022-11-28T08:00:57.536Z,2.54
2022-11-28T08:03:33.607Z,2.60
2022-11-28T08:06:11.265Z,2.64
2022-11-28T08:08:48.392Z,2.70
2022-11-28T08:11:30.060Z,2.70
2022-11-28T08:14:06.701Z,2.70
2022-11-28T08:16:45.282Z,2.72
2022-11-28T08:19:24.521Z,2.80
2022-11-28T08:22:00.889Z,2.80
2022-11-28T08:24:36.648Z,2.86
2022-11-28T08:27:12.456Z,2.90
2022-11-28T08:29:52.215Z,2.90
2022-11-28T08:32:31.751Z,2.90
2022-11-28T08:35:08.796Z,2.90
2022-11-28T08:37:44.774Z,2.90
2022-11-28T08:40:21.035Z,2.90
2022-11-28T08:42:57.097Z,2.90
2022-11-28T08:45:33.192Z,2.90
2022-11-28T08:48:09.899Z,3.00
2022-11-28T08:50:51.824Z,3.00
2022-11-28T08:53:26.245Z,3.00
2022-11-28T08:56:03.340Z,3.04
2022-11-28T08:58:39.818Z,3.06
2022-11-28T09:01:24.137Z,3.10
2022-11-28T09:04:00.895Z,3.20
2022-11-28T09:06:39.268Z,3.20
2022-11-28T09:09:15.191Z,3.20
2022-11-28T09:11:51.142Z,3.20
2022-11-28T09:14:28.636Z,3.28
2022-11-28T09:17:04.629Z,3.30
2022-11-28T09:19:41.022Z,3.30
2022-11-28T09:22:17.221Z,3.36
2022-11-28T09:24:53.006Z,3.40
2022-11-28T09:27:28.843Z,3.50
2022-11-28T09:30:05.399Z,3.50
2022-11-28T09:32:41.887Z,3.50
2022-11-28T09:35:17.915Z,3.56
2022-11-28T09:37:53.727Z,3.60
2022-11-28T09:40:38.635Z,3.60
2022-11-28T09:43:24.703Z,3.60
2022-11-28T09:46:06.947Z,3.70
2022-11-28T09:48:51.535Z,3.80
2022-11-28T09:51:35.915Z,3.80
2022-11-28T09:54:19.968Z,3.90
2022-11-28T09:56:58.061Z,3.90
2022-11-28T09:59:35.795Z,4.00
2022-11-28T10:02:32.244Z,4.00
2022-11-28T10:05:25.766Z,4.10
2022-11-28T10:08:22.896Z,4.10
2022-11-28T10:11:12.459Z,4.20
2022-11-28T10:14:10.459Z,4.30
2022-11-28T10:17:03.225Z,4.30
2022-11-28T10:19:55.944Z,4.30
2022-11-28T10:22:45.829Z,4.40
2022-11-28T10:25:30.533Z,4.40
2022-11-28T10:28:14.135Z,4.50
2022-11-28T10:30:59.521Z,4.50
2022-11-28T10:33:46.235Z,4.60
2022-11-28T10:36:29.462Z,4.66
2022-11-28T10:39:14.951Z,4.60
2022-11-28T14:58:20.991Z,2.70
2022-11-28T15:01:02.376Z,2.70
2022-11-28T15:03:53.812Z,2.62
2022-11-28T15:06:37.213Z,2.60
2022-11-28T15:09:26.036Z,2.60
2022-11-28T15:12:23.900Z,2.50
2022-11-28T15:15:04.264Z,2.50
2022-11-28T15:17:42.767Z,2.50
2022-11-28T15:20:28.811Z,2.50
2022-11-28T15:23:04.816Z,2.40
2022-11-28T15:25:43.634Z,2.40
2022-11-28T15:28:23.882Z,2.30
2022-11-28T15:31:04.153Z,2.30
2022-11-28T15:33:43.944Z,2.26
2022-11-28T15:36:31.755Z,2.20
2022-11-28T15:39:27.003Z,2.20
2022-11-28T15:42:08.243Z,2.10
2022-11-28T15:44:47.135Z,2.10
2022-11-28T15:47:25.706Z,2.00
2022-11-28T15:50:20.146Z,2.00
2022-11-28T15:53:04.977Z,1.90
2022-11-28T15:55:41.185Z,1.80
2022-11-28T16:00:03.080Z,1.72
2022-11-28T16:02:50.882Z,1.70
2022-11-28T16:05:27.429Z,1.64
2022-11-28T16:08:03.524Z,1.60
2022-11-28T16:10:45.665Z,1.56
2022-11-28T16:13:26.983Z,1.50
2022-11-28T16:16:10.295Z,1.40
2022-11-28T16:18:57.446Z,1.40
2022-11-28T16:21:38.930Z,1.30
2022-11-28T16:24:33.782Z,1.30
2022-11-28T16:27:38.394Z,1.30
2022-11-28T16:30:38.905Z,1.20
2022-11-28T16:33:43.928Z,1.20
2022-11-28T16:36:32.006Z,1.10
2022-11-28T16:39:18.950Z,1.10
2022-11-28T16:42:15.147Z,1.10
2022-11-28T16:44:51.347Z,1.02
2022-11-28T16:47:34.138Z,1.00
2022-11-28T16:50:29.923Z,1.00
2022-11-28T16:53:06.773Z,0.96
2022-11-28T16:55:48.026Z,0.90
2022-11-28T16:58:26.374Z,0.90
2022-11-28T17:01:06.701Z,0.90
2022-11-28T17:03:57.771Z,0.86
2022-11-28T17:06:37.511Z,0.80
2022-11-28T17:09:15.644Z,0.80
2022-11-28T17:11:59.431Z,0.80
2022-11-28T17:58:32.980Z,-0.10
2022-11-28T18:01:16.529Z,-0.10
2022-11-28T18:03:55.220Z,-0.10
2022-11-28T18:06:32.282Z,-0.10
2022-11-28T18:09:12.115Z,-0.10
2022-11-28T18:11:48.905Z,-0.10
2022-11-28T18:14:25.063Z,-0.10
2022-11-28T18:17:01.222Z,-0.10
2022-11-28T18:19:37.873Z,-0.10
2022-11-28T18:22:13.776Z,-0.10
2022-11-28T18:24:49.865Z,-0.18
2022-11-28T18:27:26.279Z,-0.16
2022-11-28T18:30:03.769Z,-0.18
2022-11-28T18:32:41.091Z,-0.20
2022-11-28T18:35:17.938Z,-0.20
2022-11-28T18:37:54.713Z,-0.20
2022-11-28T18:40:31.590Z,-0.20
2022-11-28T18:43:09.212Z,-0.20
2022-11-28T18:45:45.212Z,-0.22
2022-11-28T18:48:21.336Z,-0.22
2022-11-28T18:50:57.462Z,-0.24
2022-11-28T18:53:34.187Z,-0.30
2022-11-28T18:56:11.758Z,-0.30
2022-11-28T18:58:52.338Z,-0.30
2022-11-28T19:01:31.557Z,-0.30
2022-11-28T19:04:12.079Z,-0.30
2022-11-28T19:06:51.402Z,-0.30
2022-11-28T19:09:30.391Z,-0.30
2022-11-28T19:12:07.164Z,-0.30
2022-11-28T19:14:43.228Z,-0.36
2022-11-28T19:17:19.632Z,-0.36
2022-11-28T19:19:56.961Z,-0.36
2022-11-28T19:22:32.903Z,-0.40
2022-11-28T19:25:12.713Z,-0.40
2022-11-28T19:27:49.818Z,-0.40
2022-11-28T19:30:27.473Z,-0.40
2022-11-28T19:33:03.508Z,-0.40
2022-11-28T19:35:40.447Z,-0.40
2022-11-28T19:38:16.881Z,-0.40
2022-11-28T19:40:53.286Z,-0.50
2022-11-28T19:43:30.407Z,-0.50
2022-11-28T19:46:08.433Z,-0.50
2022-11-28T19:48:46.092Z,-0.50
2022-11-28T19:51:23.391Z,-0.50
2022-11-28T19:54:03.201Z,-0.60
2022-11-28T19:56:42.729Z,-0.60
2022-11-28T19:59:20.029Z,-0.60
2022-11-28T20:01:57.754Z,-0.60
2022-11-28T20:04:33.987Z,-0.60
2022-11-28T20:07:10.041Z,-0.64
2022-11-28T20:09:46.520Z,-0.68
2022-11-28T20:12:23.808Z,-0.70
2022-11-28T20:15:01.754Z,-0.70
2022-11-28T20:17:37.822Z,-0.70
2022-11-28T20:20:15.593Z,-0.70
2022-11-28T20:22:51.717Z,-0.70
2022-11-28T20:25:28.030Z,-0.70
2022-11-28T20:28:04.289Z,-0.70
2022-11-28T20:30:41.676Z,-0.74
2022-11-28T20:33:18.745Z,-0.80
2022-11-28T20:35:59.748Z,-0.74
2022-11-28T20:38:36.421Z,-0.80
2022-11-28T20:41:15.396Z,-0.80
2022-11-28T20:43:52.066Z,-0.80
2022-11-28T20:46:31.814Z,-0.80
2022-11-28T20:49:09.362Z,-0.80
2022-11-28T20:51:45.970Z,-0.80
2022-11-28T20:54:22.477Z,-0.80
2022-11-28T20:59:57.135Z,-0.90
2022-11-28T21:02:35.593Z,-0.90
2022-11-28T21:05:13.323Z,-0.90
2022-11-28T21:07:49.475Z,-0.90
2022-11-28T21:10:26.293Z,-0.92
2022-11-28T21:13:02.719Z,-1.00
2022-11-28T21:15:45.735Z,-1.00
2022-11-28T21:18:22.188Z,-1.00
2022-11-28T21:20:58.412Z,-1.04
2022-11-28T21:23:34.541Z,-1.10
2022-11-28T21:26:14.995Z,-1.10
2022-11-28T21:28:54.782Z,-1.10
2022-11-28T21:31:34.909Z,-1.10
2022-11-28T21:34:14.471Z,-1.10
2022-11-28T21:36:50.959Z,-1.10
2022-11-28T21:39:28.051Z,-1.10
2022-11-28T21:42:06.292Z,-1.10
2022-11-28T21:44:43.129Z,-1.12
2022-11-28T21:47:19.538Z,-1.20
2022-11-28T21:49:55.400Z,-1.20
2022-11-28T21:52:31.640Z,-1.24
2022-11-28T21:55:08.636Z,-1.30
2022-11-28T21:57:45.002Z,-1.30
2022-11-28T22:00:46.036Z,-1.40
2022-11-28T22:03:21.213Z,-1.40
2022-11-28T22:06:05.126Z,-1.40
2022-11-28T22:08:42.338Z,-1.50
2022-11-28T22:11:19.132Z,-1.50
2022-11-28T22:13:55.705Z,-1.52
2022-11-28T22:16:33.505Z,-1.60
2022-11-28T22:19:10.173Z,-1.60
2022-11-28T22:21:55.697Z,-1.60
2022-11-28T22:24:34.673Z,-1.60
2022-11-28T22:27:13.841Z,-1.60
2022-11-28T22:29:50.470Z,-1.60
2022-11-28T22:32:26.609Z,-1.60
2022-11-28T22:35:02.900Z,-1.68
2022-11-28T22:37:39.198Z,-1.70
2022-11-28T22:40:18.397Z,-1.70
2022-11-28T22:42:58.180Z,-1.70
2022-11-28T22:45:34.235Z,-1.70
2022-11-28T22:48:11.484Z,-1.70
2022-11-28T22:50:47.466Z,-1.70
2022-11-28T22:53:24.013Z,-1.70
2022-11-28T22:56:05.905Z,-1.70
2022-11-28T22:58:44.829Z,-1.70
2022-11-28T23:01:25.527Z,-1.70
2022-11-28T23:04:02.149Z,-1.62
2022-11-28T23:06:39.157Z,-1.60
2022-11-28T23:09:16.872Z,-1.60
2022-11-28T23:11:53.725Z,-1.60
2022-11-28T23:14:30.604Z,-1.60
2022-11-28T23:17:07.781Z,-1.50
2022-11-28T23:19:44.043Z,-1.50
2022-11-28T23:22:20.078Z,-1.50
2022-11-28T23:24:56.165Z,-1.50
2022-11-28T23:27:33.734Z,-1.40
2022-11-28T23:30:13.451Z,-1.48
2022-11-28T23:32:49.458Z,-1.42
2022-11-28T23:35:25.515Z,-1.40
2022-11-28T23:38:01.382Z,-1.40
2022-11-28T23:40:37.326Z,-1.42
2022-11-28T23:43:13.259Z,-1.50
2022-11-28T23:45:49.138Z,-1.50
2022-11-28T23:48:25.604Z,-1.50
2022-11-28T23:51:02.808Z,-1.50
2022-11-28T23:53:39.720Z,-1.50
2022-11-28T23:56:19.413Z,-1.50
2022-11-28T23:58:56.718Z,-1.50
